WIPH/KRC METAR and TAF weather

Enter ICAO airport designator
Station Type Date Time Source
WIPH METAR UTC NOAA

Error!


Station Type Date Time Source
WIPH Decoded METAR UTC NOAA

Error!

Station Type Date Time Source
WIPH TAF 2014/01/27 06:05 UTC NOAA

TAF WIPH 270500Z 2706/2718 30010KT 9999 SCT018
TEMPO 2710/2714 5000 -TSRA FEW015CB SCT016


Example: see airport list